Accueil
METAR-TAF:

METAR-TAF

Aéroports :

Base d'aéronautique navale de Lanvéoc-Poulmic

Lanvéoc, France

latitude: 48-17N, longitude: 004-26W, altitude: 87 m

Observation

Le bulletin a été fait il y a 12 minutes, à 06:00 UTC
Vent 5 kt de nord-est, variant entre nord et est
Température 10°C
Humidité 82%
Pression 1036 hPa
Visibilité 10 km ou plus
pas de nuages en-dessous de 1500 mètres et pas de cumulonimbus.

METAR: LFRL 240600Z AUTO 04005KT 010V080 CAVOK 10/07 Q1036 NOSIG

Heure: 08:12 (06:12 UTC)

Prévision

Le bulletin a été fait il y a 1 heure et 12 minutes, à 05:00 UTC
Prévision valable du 24 à 06 UTC au 25 à 06 UTC
Vent 8 kt de nord/nord-est
Visibilité 10 km ou plus
pas de nuages en-dessous de 1500 mètres et pas de cumulonimbus.
Temporairement
du 24 à 06 UTC au 24 à 18 UTC
Nuages épars à une hauteur de 3500 ft

TAF: LFRL 240500Z 2406/2506 03008KT CAVOK TEMPO 2406/2418 SCT035

Observations et prévisions météorologiques de plus de 4000 aéroports (messages METAR et TAF).

Les stations disponibles sont représentées par des disques jaunes et rouges sur la carte.

Passer la souris dessus pour voir le nom de la station.

Cliquer dessus pour voir les observations et prévisions météorologiques.

Pour changer de carte: cliquez sur les boutons verts avec une croix noire pour zoomer, sur le bouton vert avec un tiret pour effectuer un zoom arrière, ou sur les flèches vertes pour les cartes adjacentes.


METAR-TAF: